Time;durP1;ratioP1;P1;durP2;ratioP2;P2;SDS_P1;SDS_P2;PMS_P1;PMS_P2;Temp;Humidity;BMP_temperature;BMP_pressure;BME280_temperature;BME280_humidity;BME280_pressure;Samples;Min_cycle;Max_cycle;Signal;HPM_P1;HPM_P2
2020/12/11 00:00:59;;;;;;;145.67;58.60;;;;;;;-1.19;100.00;98204.44;2080507;28;20223;-84
2020/12/11 00:01:59;;;;;;;142.77;57.83;;;;;;;-1.18;100.00;98216.50;2081041;28;20223;-84
2020/12/11 00:03:01;;;;;;;140.57;58.90;;;;;;;-1.05;100.00;98227.63;2081042;28;20215;-84
2020/12/11 00:04:02;;;;;;;131.25;56.45;;;;;;;-1.07;100.00;98222.66;2081209;28;20226;-84
2020/12/11 00:05:04;;;;;;;145.83;57.53;;;;;;;-1.04;100.00;98231.84;2081920;28;20239;-84
2020/12/11 00:06:04;;;;;;;142.45;59.10;;;;;;;-1.04;100.00;98226.59;2081889;28;20230;-84
2020/12/11 00:07:05;;;;;;;130.60;57.40;;;;;;;-1.07;100.00;98227.09;2081813;28;20219;-84
2020/12/11 00:08:08;;;;;;;142.52;57.65;;;;;;;-1.01;100.00;98236.59;2081593;28;20234;-83
2020/12/11 00:09:09;;;;;;;139.35;59.97;;;;;;;-1.02;100.00;98238.44;2080462;28;20765;-84
2020/12/11 00:10:12;;;;;;;144.30;60.72;;;;;;;-1.02;100.00;98240.25;2072683;28;20724;-83
2020/12/11 00:11:13;;;;;;;143.02;60.33;;;;;;;-1.05;100.00;98236.28;2081168;28;20725;-83
2020/12/11 00:12:14;;;;;;;136.85;60.42;;;;;;;-1.03;100.00;98233.44;2081798;28;20281;-83
2020/12/11 00:13:15;;;;;;;141.33;59.77;;;;;;;-1.05;100.00;98230.25;2081012;28;20329;-83
2020/12/11 00:14:16;;;;;;;139.43;61.33;;;;;;;-1.05;100.00;98230.25;2081134;28;20257;-84
2020/12/11 00:15:18;;;;;;;153.53;61.73;;;;;;;-1.07;100.00;98227.09;2080381;28;20223;-84
2020/12/11 00:16:19;;;;;;;137.20;60.97;;;;;;;-1.08;100.00;98231.53;2073042;28;20220;-84
2020/12/11 00:17:20;;;;;;;149.40;62.17;;;;;;;-1.09;100.00;98229.97;2072042;28;20228;-84
2020/12/11 00:18:21;;;;;;;142.98;60.92;;;;;;;-1.17;100.00;98217.28;2080265;28;20219;-84
2020/12/11 00:19:22;;;;;;;139.30;62.13;;;;;;;-1.10;100.00;98238.06;2080602;28;20289;-83
2020/12/11 00:20:23;;;;;;;152.15;65.03;;;;;;;-1.16;100.00;98235.34;2079991;28;20322;-84
2020/12/11 00:21:24;;;;;;;139.83;59.90;;;;;;;-1.14;100.00;98238.50;2080981;28;20219;-84
2020/12/11 00:22:25;;;;;;;152.02;64.07;;;;;;;-1.12;100.00;98230.44;2081669;28;20243;-84
2020/12/11 00:23:27;;;;;;;144.67;60.03;;;;;;;-1.11;100.00;98234.66;2081705;28;20231;-84
2020/12/11 00:24:28;;;;;;;136.90;58.72;;;;;;;-1.11;100.00;98234.66;2080594;28;20689;-84
2020/12/11 00:25:31;;;;;;;140.47;59.13;;;;;;;-1.14;100.00;98230.66;2080872;28;20219;-84
2020/12/11 00:26:31;;;;;;;142.35;62.78;;;;;;;-1.13;100.00;98226.22;2081001;28;20223;-84
2020/12/11 00:27:33;;;;;;;144.00;63.20;;;;;;;-1.11;100.00;98232.03;2072858;28;20302;-84
2020/12/11 00:28:33;;;;;;;134.48;58.15;;;;;;;-1.14;100.00;98228.03;2072585;28;20621;-84
2020/12/11 00:29:35;;;;;;;140.87;61.30;;;;;;;-1.12;100.00;98227.03;2072462;28;20240;-84
2020/12/11 00:30:35;;;;;;;129.68;56.55;;;;;;;-1.10;100.00;98235.44;2081032;28;20654;-84
2020/12/11 00:31:38;;;;;;;136.80;58.90;;;;;;;-1.18;100.00;98213.09;2080852;28;20302;-84
2020/12/11 00:32:38;;;;;;;139.77;59.13;;;;;;;-1.10;100.00;98230.19;2080776;28;20246;-83
2020/12/11 00:33:40;;;;;;;139.03;59.73;;;;;;;-1.14;100.00;98229.88;2081602;28;20234;-83
2020/12/11 00:34:40;;;;;;;136.18;57.00;;;;;;;-1.08;100.00;98230.75;2081678;28;20223;-84
2020/12/11 00:35:41;;;;;;;139.67;59.83;;;;;;;-1.09;100.00;98231.78;2081419;28;22288;-83
2020/12/11 00:36:42;;;;;;;149.90;64.10;;;;;;;-1.17;100.00;98218.06;2080671;28;20236;-84
2020/12/11 00:37:43;;;;;;;151.37;64.80;;;;;;;-1.11;100.00;98234.66;2080770;28;20228;-84
2020/12/11 00:38:45;;;;;;;143.63;63.35;;;;;;;-1.19;100.00;98225.38;2080702;28;20227;-84
2020/12/11 00:39:46;;;;;;;141.40;62.78;;;;;;;-1.09;100.00;98247.50;2080833;28;20227;-84
2020/12/11 00:40:48;;;;;;;139.75;61.75;;;;;;;-1.07;100.00;98237.56;2080812;28;20256;-84
2020/12/11 00:41:49;;;;;;;143.90;66.93;;;;;;;-1.05;100.00;98244.13;2080804;28;20220;-84
2020/12/11 00:42:50;;;;;;;139.82;62.72;;;;;;;-1.06;100.00;98234.69;2081552;28;20227;-84
2020/12/11 00:43:51;;;;;;;130.40;61.03;;;;;;;-1.04;100.00;98239.69;2080681;28;20227;-84
2020/12/11 00:44:52;;;;;;;147.23;63.50;;;;;;;-1.06;100.00;98239.94;2072202;28;20236;-83
2020/12/11 00:45:53;;;;;;;133.70;60.13;;;;;;;-1.07;100.00;98243.59;2071926;28;20275;-84
2020/12/11 00:46:55;;;;;;;155.45;66.20;;;;;;;-1.14;100.00;98230.66;2080762;28;20231;-84
2020/12/11 00:47:57;;;;;;;148.48;62.60;;;;;;;-1.07;100.00;98229.72;2072696;28;20248;-84
2020/12/11 00:48:57;;;;;;;150.35;63.60;;;;;;;-1.08;100.00;98233.38;2080719;28;20298;-84
2020/12/11 00:49:59;;;;;;;144.13;61.37;;;;;;;-1.08;100.00;98233.38;2080761;28;20230;-84
2020/12/11 00:50:59;;;;;;;146.40;62.33;;;;;;;-1.05;100.00;98238.09;2080442;28;20215;-83
2020/12/11 00:52:01;;;;;;;138.77;62.57;;;;;;;-1.04;100.00;98239.69;2071872;28;20307;-84
2020/12/11 00:53:08;;;;;;;142.38;62.53;;;;;;;-1.05;100.00;98236.28;2072659;28;20231;-84
2020/12/11 00:54:10;;;;;;;133.03;58.80;;;;;;;-1.02;100.00;98240.25;2072458;28;20258;-84
2020/12/11 00:55:11;;;;;;;145.27;63.55;;;;;;;-1.07;100.00;98227.09;2080670;28;20227;-84
2020/12/11 00:56:13;;;;;;;146.07;61.90;;;;;;;-1.11;100.00;98218.16;2080484;28;20281;-84
2020/12/11 00:57:13;;;;;;;139.80;61.50;;;;;;;-1.02;100.00;98232.41;2080142;28;20215;-84
2020/12/11 00:58:15;;;;;;;136.90;60.47;;;;;;;-1.01;100.00;98232.16;2079928;28;20286;-84
2020/12/11 00:59:15;;;;;;;147.00;64.03;;;;;;;-1.01;100.00;98234.78;2080485;28;20258;-83
2020/12/11 01:00:18;;;;;;;151.90;62.77;;;;;;;-1.04;100.00;98224.81;2072504;28;20228;-84
2020/12/11 01:01:19;;;;;;;144.90;61.58;;;;;;;-1.01;100.00;98234.00;2080640;28;20600;-84
2020/12/11 01:02:20;;;;;;;138.27;61.20;;;;;;;-1.03;100.00;98233.44;2080552;28;20227;-84
2020/12/11 01:03:21;;;;;;;140.13;60.60;;;;;;;-1.02;100.00;98229.78;2072083;28;20224;-84
2020/12/11 01:04:22;;;;;;;140.37;61.50;;;;;;;-1.07;100.00;98224.47;2080847;28;20242;-84
2020/12/11 01:05:23;;;;;;;146.77;59.72;;;;;;;-1.04;100.00;98229.22;2081052;28;20246;-83
2020/12/11 01:06:24;;;;;;;138.93;61.90;;;;;;;-1.07;100.00;98240.19;2080540;28;20245;-83
2020/12/11 01:07:25;;;;;;;142.60;61.78;;;;;;;-1.18;100.00;98226.16;2080580;28;20227;-83
2020/12/11 01:08:26;;;;;;;130.47;60.03;;;;;;;-1.09;100.00;98240.44;2081401;28;20266;-84
2020/12/11 01:09:27;;;;;;;134.13;60.60;;;;;;;-1.08;100.00;98234.16;2081370;28;20226;-83
2020/12/11 01:10:28;;;;;;;138.90;60.50;;;;;;;-1.10;100.00;98233.59;2080454;28;20758;-84
2020/12/11 01:11:30;;;;;;;132.70;58.55;;;;;;;-1.23;100.00;98220.84;2080693;28;20219;-84
2020/12/11 01:12:31;;;;;;;135.40;57.67;;;;;;;-1.16;100.00;98237.19;2080394;28;20223;-84
2020/12/11 01:13:33;;;;;;;130.10;57.40;;;;;;;-1.19;100.00;98235.84;2072354;28;20220;-84
2020/12/11 01:14:33;;;;;;;146.15;57.70;;;;;;;-1.20;100.00;98238.72;2080724;28;20716;-84
2020/12/11 01:15:34;;;;;;;134.87;57.17;;;;;;;-1.26;100.00;98231.81;2080620;28;20242;-84
2020/12/11 01:16:35;;;;;;;133.07;58.72;;;;;;;-1.28;100.00;98232.06;2080674;28;20215;-84
2020/12/11 01:17:36;;;;;;;137.73;59.17;;;;;;;-1.28;100.00;98237.28;2081265;28;20709;-84
2020/12/11 01:18:37;;;;;;;133.70;56.72;;;;;;;-1.28;100.00;98237.28;2080906;28;20227;-83
2020/12/11 01:19:38;;;;;;;138.43;58.47;;;;;;;-1.42;100.00;98230.78;2080350;28;20319;-83
2020/12/11 01:20:39;;;;;;;131.32;59.40;;;;;;;-1.37;100.00;98241.34;2080569;28;20227;-84
2020/12/11 01:21:40;;;;;;;136.10;57.47;;;;;;;-1.46;100.00;98225.25;2081184;28;20223;-83
2020/12/11 01:22:41;;;;;;;122.75;57.92;;;;;;;-1.41;100.00;98234.97;2081287;28;20689;-84
2020/12/11 01:23:42;;;;;;;134.40;56.13;;;;;;;-1.44;100.00;98227.63;2080138;28;20640;-83
2020/12/11 01:24:43;;;;;;;134.93;60.25;;;;;;;-1.45;100.00;98233.88;2080513;28;20583;-83
2020/12/11 01:25:44;;;;;;;138.37;58.70;;;;;;;-1.46;100.00;98234.91;2072414;28;20224;-84
2020/12/11 01:26:47;;;;;;;149.07;63.03;;;;;;;-1.45;100.00;98237.28;2072425;28;20307;-84
2020/12/11 01:27:48;;;;;;;131.90;60.08;;;;;;;-1.54;100.00;98230.06;2072652;28;20277;-84
2020/12/11 01:28:49;;;;;;;135.23;58.08;;;;;;;-1.57;100.00;98222.69;2072171;28;20219;-84
2020/12/11 01:29:50;;;;;;;138.13;58.93;;;;;;;-1.53;100.00;98229.03;2081232;28;20234;-84
2020/12/11 01:30:51;;;;;;;136.77;61.50;;;;;;;-1.47;100.00;98231.50;2079977;28;20693;-84
2020/12/11 01:31:55;;;;;;;142.40;60.77;;;;;;;-1.48;100.00;98226.50;2080145;28;20600;-83
2020/12/11 01:32:55;;;;;;;142.13;61.92;;;;;;;-1.48;100.00;98224.69;2080797;28;20231;-83
2020/12/11 01:33:57;;;;;;;137.83;62.50;;;;;;;-1.49;100.00;98228.31;2080510;28;20304;-83
2020/12/11 01:34:58;;;;;;;139.43;60.75;;;;;;;-1.53;100.00;98234.28;2081815;28;20227;-82
2020/12/11 01:35:59;;;;;;;134.70;57.57;;;;;;;-1.54;100.00;98238.72;2080275;28;20243;-83
2020/12/11 01:37:03;;;;;;;144.10;59.30;;;;;;;-1.57;100.00;98233.94;2080298;28;20227;-82
2020/12/11 01:38:05;;;;;;;138.30;60.08;;;;;;;-1.62;100.00;98225.25;2072789;28;20228;-82
2020/12/11 01:39:06;;;;;;;148.85;61.35;;;;;;;-1.63;100.00;98226.28;2079912;28;20358;-83
2020/12/11 01:40:07;;;;;;;165.10;65.80;;;;;;;-1.62;100.00;98235.69;2080434;28;20235;-83
2020/12/11 01:41:08;;;;;;;140.97;60.73;;;;;;;-1.63;100.00;98224.44;2080220;28;20223;-82
2020/12/11 01:42:10;;;;;;;156.35;62.05;;;;;;;-1.88;100.00;98187.44;2071512;28;20647;-83
2020/12/11 01:43:12;;;;;;;141.40;59.63;;;;;;;-1.64;100.00;98237.75;2080776;28;20581;-83
2020/12/11 01:44:12;;;;;;;144.43;60.55;;;;;;;-1.67;100.00;98233.78;2080110;28;20241;-83
2020/12/11 01:45:14;;;;;;;138.37;59.43;;;;;;;-1.69;100.00;98242.91;2072077;28;20220;-83
2020/12/11 01:46:16;;;;;;;137.38;61.13;;;;;;;-1.73;100.00;98235.53;2072576;28;20224;-83
2020/12/11 01:47:17;;;;;;;134.10;59.22;;;;;;;-1.76;100.00;98235.19;2080265;28;20230;-82
2020/12/11 01:48:21;;;;;;;138.48;60.35;;;;;;;-1.86;100.00;98220.16;2080890;28;20693;-83
2020/12/11 01:49:22;;;;;;;145.70;60.97;;;;;;;-1.73;100.00;98229.53;2079767;28;20223;-83
2020/12/11 01:50:23;;;;;;;144.05;60.22;;;;;;;-1.79;100.00;98218.19;2080036;28;20554;-83
2020/12/11 01:51:24;;;;;;;153.33;64.03;;;;;;;-1.77;100.00;98218.72;2072546;28;20231;-83
2020/12/11 01:52:25;;;;;;;142.95;61.05;;;;;;;-1.76;100.00;98224.75;2080168;28;20219;-83
2020/12/11 01:53:28;;;;;;;150.97;61.87;;;;;;;-1.81;100.00;98220.25;2080763;28;20227;-83
2020/12/11 01:54:28;;;;;;;151.52;62.25;;;;;;;-1.80;100.00;98218.41;2072098;28;20228;-83
2020/12/11 01:55:29;;;;;;;145.90;61.90;;;;;;;-1.92;100.00;98210.63;2080308;28;20224;-83
2020/12/11 01:56:33;;;;;;;144.55;59.88;;;;;;;-1.88;100.00;98216.97;2080620;28;20574;-83
2020/12/11 01:57:40;;;;;;;147.55;62.60;;;;;;;-1.94;100.00;98210.06;2072283;28;20736;-83
2020/12/11 01:58:43;;;;;;;142.80;60.60;;;;;;;-1.89;100.00;98217.22;2080430;28;20227;-83
2020/12/11 01:59:45;;;;;;;151.45;62.03;;;;;;;-1.84;100.00;98218.09;2080008;28;20219;-83
2020/12/11 02:00:47;;;;;;;144.27;60.38;;;;;;;-2.05;100.00;98190.03;2072206;28;20708;-83
2020/12/11 02:01:50;;;;;;;140.45;60.70;;;;;;;-1.94;100.00;98209.28;2071941;28;20228;-83
2020/12/11 02:02:59;;;;;;;135.57;60.83;;;;;;;-1.84;100.00;98219.91;2080187;28;20220;-83
2020/12/11 02:04:00;;;;;;;134.65;60.22;;;;;;;-1.89;100.00;98215.41;2072835;28;20248;-83
2020/12/11 02:05:01;;;;;;;156.10;60.85;;;;;;;-2.10;100.00;98176.88;2080077;28;20261;-83
2020/12/11 02:06:02;;;;;;;141.40;60.80;;;;;;;-1.94;100.00;98204.84;2080132;28;20223;-82
2020/12/11 02:07:03;;;;;;;140.73;60.67;;;;;;;-1.87;100.00;98215.16;2080454;28;20261;-83
2020/12/11 02:08:04;;;;;;;138.88;60.65;;;;;;;-1.87;100.00;98208.09;2071546;28;20228;-82
2020/12/11 02:09:05;;;;;;;140.90;61.03;;;;;;;-1.93;100.00;98209.03;2079220;28;20709;-82
2020/12/11 02:10:08;;;;;;;147.55;60.97;;;;;;;-2.01;100.00;98197.16;2071712;28;20634;-82
2020/12/11 02:11:17;;;;;;;142.48;61.25;;;;;;;-1.89;100.00;98207.56;2071502;28;20243;-83
2020/12/11 02:12:18;;;;;;;155.82;61.20;;;;;;;-1.89;100.00;98212.78;2072908;28;20220;-82
2020/12/11 02:13:20;;;;;;;148.50;61.83;;;;;;;-2.00;100.00;98197.94;2080169;28;20246;-82
2020/12/11 02:14:21;;;;;;;145.52;61.38;;;;;;;-1.96;100.00;98201.69;2072017;28;20307;-83
2020/12/11 02:15:22;;;;;;;157.05;60.15;;;;;;;-1.84;100.00;98218.09;2079926;28;20226;-85
2020/12/11 02:16:24;;;;;;;149.33;61.13;;;;;;;-1.85;100.00;98208.66;2079331;28;20222;-83
2020/12/11 02:17:26;;;;;;;152.07;60.78;;;;;;;-1.89;100.00;98197.09;2071907;28;20297;-82
2020/12/11 02:18:27;;;;;;;155.07;61.30;;;;;;;-1.83;100.00;98209.19;2071918;28;20228;-83
2020/12/11 02:19:29;;;;;;;140.48;58.72;;;;;;;-1.81;100.00;98206.38;2080019;28;20219;-82
2020/12/11 02:20:31;;;;;;;148.38;63.45;;;;;;;-1.81;100.00;98204.56;2080010;28;20706;-83
2020/12/11 02:21:33;;;;;;;152.25;59.78;;;;;;;-1.82;100.00;98208.19;2079393;28;20228;-83
2020/12/11 02:22:34;;;;;;;148.20;61.00;;;;;;;-1.95;100.00;98187.59;2079995;28;20278;-83
2020/12/11 02:23:35;;;;;;;140.75;62.30;;;;;;;-1.82;100.00;98200.34;2071842;28;20605;-82
2020/12/11 02:24:36;;;;;;;146.53;61.60;;;;;;;-1.86;100.00;98187.97;2071667;28;20303;-83
2020/12/11 02:25:40;;;;;;;149.38;62.58;;;;;;;-1.78;100.00;98192.81;2071390;28;20546;-84
2020/12/11 02:26:41;;;;;;;149.02;65.03;;;;;;;-1.85;100.00;98182.50;2080088;28;20721;-83
2020/12/11 02:27:45;;;;;;;132.93;59.47;;;;;;;-1.81;100.00;98191.47;2080640;28;20269;-83
2020/12/11 02:28:47;;;;;;;146.07;59.92;;;;;;;-1.85;100.00;98179.09;2071531;28;20231;-82
2020/12/11 02:29:47;;;;;;;140.50;59.83;;;;;;;-1.79;100.00;98186.81;2071279;28;20246;-82
2020/12/11 02:30:49;;;;;;;145.47;60.33;;;;;;;-1.80;100.00;98182.59;2080370;28;20223;-82
2020/12/11 02:31:49;;;;;;;138.70;59.72;;;;;;;-1.75;100.00;98184.50;2071805;28;20248;-82
2020/12/11 02:32:51;;;;;;;141.30;61.13;;;;;;;-1.72;100.00;98189.28;2080129;28;20230;-83
2020/12/11 02:33:51;;;;;;;147.27;61.13;;;;;;;-1.72;100.00;98190.06;2079520;28;20330;-85
2020/12/11 02:34:53;;;;;;;138.30;60.80;;;;;;;-1.83;100.00;98170.00;2071545;28;20282;-83
2020/12/11 02:35:54;;;;;;;147.00;63.35;;;;;;;-1.71;100.00;98178.56;2080370;28;20227;-83
2020/12/11 02:37:01;;;;;;;145.60;62.20;;;;;;;-1.71;100.00;98183.00;2079778;28;20235;-83
2020/12/11 02:38:01;;;;;;;148.02;61.90;;;;;;;-1.67;100.00;98180.69;2080359;28;20235;-82
2020/12/11 02:39:03;;;;;;;157.43;64.07;;;;;;;-1.68;100.00;98179.13;2079865;28;20223;-82
2020/12/11 02:40:05;;;;;;;153.85;66.15;;;;;;;-1.69;100.00;98178.31;2071582;28;20224;-82
2020/12/11 02:41:08;;;;;;;146.90;64.55;;;;;;;-1.68;100.00;98176.50;2072217;28;20247;-82
2020/12/11 02:42:08;;;;;;;166.85;65.40;;;;;;;-1.75;100.00;98166.97;2071345;28;20239;-83
2020/12/11 02:43:10;;;;;;;146.73;63.33;;;;;;;-1.78;100.00;98159.63;2071685;28;20314;-82
2020/12/11 02:44:10;;;;;;;146.00;62.38;;;;;;;-1.91;100.00;98141.66;2071795;28;20223;-82
2020/12/11 02:45:11;;;;;;;149.00;64.43;;;;;;;-1.66;100.00;98179.66;2071557;28;20303;-82
2020/12/11 02:46:12;;;;;;;146.32;64.65;;;;;;;-1.66;100.00;98177.84;2071819;28;20307;-82
2020/12/11 02:47:14;;;;;;;145.10;62.73;;;;;;;-1.69;100.00;98177.53;2070501;28;20227;-82
2020/12/11 02:48:15;;;;;;;145.02;59.83;;;;;;;-1.65;100.00;98182.06;2071606;28;20219;-82
2020/12/11 02:49:16;;;;;;;156.70;63.53;;;;;;;-1.71;100.00;98172.53;2071457;28;20278;-81
2020/12/11 02:50:17;;;;;;;133.63;62.78;;;;;;;-1.73;100.00;98170.19;2079891;28;20253;-82
2020/12/11 02:51:18;;;;;;;149.23;61.10;;;;;;;-1.70;100.00;98176.75;2079612;28;20219;-82
2020/12/11 02:52:20;;;;;;;138.95;62.67;;;;;;;-1.61;100.00;98180.53;2079653;28;20219;-82
2020/12/11 02:53:22;;;;;;;136.75;62.63;;;;;;;-1.68;100.00;98173.88;2071525;28;20315;-82
2020/12/11 02:54:23;;;;;;;136.20;59.13;;;;;;;-1.63;100.00;98179.19;2079403;28;20601;-82
2020/12/11 02:55:24;;;;;;;143.23;62.63;;;;;;;-1.64;100.00;98186.25;2079522;28;20302;-81
2020/12/11 02:56:25;;;;;;;141.02;62.00;;;;;;;-2.04;100.00;98123.66;2071136;28;20587;-82
2020/12/11 02:57:26;;;;;;;139.97;63.20;;;;;;;-1.72;100.00;98182.22;2079649;28;20321;-82
2020/12/11 02:58:27;;;;;;;139.70;61.28;;;;;;;-1.72;100.00;98179.59;2071531;28;20290;-82
2020/12/11 02:59:28;;;;;;;141.63;64.77;;;;;;;-1.69;100.00;98182.75;2079881;28;20223;-82
2020/12/11 03:00:29;;;;;;;140.40;61.53;;;;;;;-1.79;100.00;98173.72;2079577;28;20222;-83
2020/12/11 03:01:30;;;;;;;143.47;61.00;;;;;;;-1.73;100.00;98177.22;2079681;28;20712;-82
2020/12/11 03:02:31;;;;;;;141.05;60.38;;;;;;;-1.69;100.00;98177.53;2079832;28;20443;-82
2020/12/11 03:03:32;;;;;;;138.83;61.80;;;;;;;-1.74;100.00;98173.81;2079692;28;20242;-83
2020/12/11 03:04:32;;;;;;;146.93;60.55;;;;;;;-1.86;100.00;98161.84;2079749;28;20224;-82
2020/12/11 03:05:34;;;;;;;136.83;61.33;;;;;;;-2.07;100.00;98130.16;2079666;28;20243;-82
2020/12/11 03:06:35;;;;;;;132.95;61.20;;;;;;;-1.78;100.00;98169.28;2071596;28;20584;-82
2020/12/11 03:07:37;;;;;;;137.60;64.20;;;;;;;-1.89;100.00;98173.56;2079599;28;20231;-82
2020/12/11 03:08:37;;;;;;;139.95;61.85;;;;;;;-1.85;100.00;98174.66;2071068;28;20228;-83
2020/12/11 03:09:39;;;;;;;135.60;60.63;;;;;;;-1.93;100.00;98163.81;2079586;28;20254;-82
2020/12/11 03:10:39;;;;;;;132.82;59.40;;;;;;;-1.89;100.00;98178.81;2079680;28;20223;-82
2020/12/11 03:11:40;;;;;;;138.47;59.67;;;;;;;-2.03;100.00;98157.41;2071062;28;20312;-82
2020/12/11 03:12:41;;;;;;;140.90;62.30;;;;;;;-1.91;100.00;98174.81;2079535;28;20567;-82
2020/12/11 03:13:42;;;;;;;151.45;64.63;;;;;;;-2.04;100.00;98155.81;2079382;28;20231;-82
2020/12/11 03:14:43;;;;;;;141.40;62.87;;;;;;;-1.97;100.00;98171.34;2071679;28;20228;-83
2020/12/11 03:15:44;;;;;;;130.98;61.67;;;;;;;-2.08;100.00;98154.72;2079549;28;20227;-83
2020/12/11 03:16:45;;;;;;;135.17;61.10;;;;;;;-2.07;100.00;98171.19;2078732;28;20220;-83
2020/12/11 03:17:46;;;;;;;145.75;61.67;;;;;;;-2.08;100.00;98173.00;2071555;28;20274;-82
2020/12/11 03:18:48;;;;;;;139.17;63.43;;;;;;;-2.15;100.00;98166.34;2079075;28;20326;-83
2020/12/11 03:19:50;;;;;;;152.98;64.88;;;;;;;-2.11;100.00;98173.47;2071277;28;20718;-82
2020/12/11 03:20:51;;;;;;;149.63;65.60;;;;;;;-2.19;100.00;98173.84;2079457;28;20215;-83
2020/12/11 03:21:52;;;;;;;133.52;61.67;;;;;;;-2.23;100.00;98166.72;2070906;28;20224;-84
2020/12/11 03:22:56;;;;;;;149.23;64.77;;;;;;;-2.20;100.00;98177.50;2071218;28;20228;-82
2020/12/11 03:23:57;;;;;;;137.82;61.42;;;;;;;-2.23;100.00;98180.56;2071769;28;20251;-82
2020/12/11 03:24:58;;;;;;;144.27;63.17;;;;;;;-2.39;100.00;98161.22;2079618;28;20226;-82
2020/12/11 03:25:59;;;;;;;145.82;62.72;;;;;;;-2.32;100.00;98174.16;2078896;28;20219;-82
2020/12/11 03:27:00;;;;;;;141.37;63.47;;;;;;;-2.53;100.00;98144.25;2078826;28;20270;-82
2020/12/11 03:28:01;;;;;;;147.73;62.00;;;;;;;-2.33;100.00;98177.78;2071853;28;20228;-82
2020/12/11 03:29:02;;;;;;;139.87;62.60;;;;;;;-2.42;100.00;98169.53;2071140;28;20720;-82
2020/12/11 03:30:03;;;;;;;130.02;63.42;;;;;;;-2.38;100.00;98181.09;2071245;28;20265;-82
2020/12/11 03:31:05;;;;;;;143.65;64.05;;;;;;;-2.45;100.00;98180.44;2071845;28;20744;-82
2020/12/11 03:32:05;;;;;;;146.48;64.32;;;;;;;-2.61;100.00;98165.50;2071380;28;20219;-83
2020/12/11 03:33:07;;;;;;;131.00;61.83;;;;;;;-2.51;100.00;98183.22;2080070;28;20278;-83
2020/12/11 03:34:08;;;;;;;152.50;68.38;;;;;;;-2.61;100.00;98170.72;2070900;28;20262;-83
2020/12/11 03:35:09;;;;;;;143.87;65.83;;;;;;;-2.57;100.00;98190.13;2079386;28;20286;-82
2020/12/11 03:36:10;;;;;;;141.98;64.88;;;;;;;-2.62;100.00;98182.19;2079767;28;20227;-82
2020/12/11 03:37:11;;;;;;;133.47;61.03;;;;;;;-2.60;100.00;98186.19;2071139;28;20319;-83
2020/12/11 03:38:12;;;;;;;145.15;62.22;;;;;;;-2.69;100.00;98168.50;2071363;28;20747;-82
2020/12/11 03:39:14;;;;;;;136.10;63.47;;;;;;;-2.64;100.00;98192.88;2071283;28;20718;-83
2020/12/11 03:40:14;;;;;;;143.40;63.30;;;;;;;-2.65;100.00;98187.91;2079535;28;20306;-83
2020/12/11 03:41:16;;;;;;;153.57;66.97;;;;;;;-2.66;100.00;98196.75;2079821;28;20227;-82
2020/12/11 03:42:17;;;;;;;145.23;64.53;;;;;;;-3.05;100.00;98133.88;2079443;28;20239;-82
2020/12/11 03:43:18;;;;;;;146.67;62.80;;;;;;;-2.73;100.00;98190.88;2071288;28;20224;-82
2020/12/11 03:44:19;;;;;;;150.50;67.10;;;;;;;-2.77;100.00;98190.56;2079851;28;20310;-82
2020/12/11 03:45:20;;;;;;;145.35;63.30;;;;;;;-2.88;100.00;98180.91;2079342;28;20281;-81
2020/12/11 03:46:21;;;;;;;153.75;65.93;;;;;;;-2.81;100.00;98180.78;2079811;28;20231;-82
2020/12/11 03:47:22;;;;;;;149.05;67.68;;;;;;;-2.90;100.00;98182.97;2070820;28;20232;-83
2020/12/11 03:48:23;;;;;;;148.80;66.10;;;;;;;-2.93;100.00;98176.41;2071162;28;20281;-82
2020/12/11 03:49:24;;;;;;;155.43;65.63;;;;;;;-2.95;100.00;98180.28;2071635;28;20223;-82
2020/12/11 03:50:25;;;;;;;136.90;64.18;;;;;;;-2.88;100.00;98199.19;2079249;28;20264;-82
2020/12/11 03:51:26;;;;;;;150.83;63.30;;;;;;;-2.88;100.00;98202.56;2071528;28;20227;-82
2020/12/11 03:52:28;;;;;;;163.88;69.20;;;;;;;-2.91;100.00;98197.81;2079355;28;20581;-82
2020/12/11 03:53:30;;;;;;;161.02;66.15;;;;;;;-3.08;100.00;98172.69;2079400;28;20227;-82
2020/12/11 03:54:31;;;;;;;162.43;66.63;;;;;;;-3.02;100.00;98196.03;2071724;28;20307;-82
2020/12/11 03:55:32;;;;;;;168.20;70.97;;;;;;;-2.97;100.00;98198.75;2079457;28;20270;-82
2020/12/11 03:56:33;;;;;;;164.68;69.10;;;;;;;-3.01;100.00;98197.63;2071453;28;20224;-82
2020/12/11 03:57:34;;;;;;;152.43;68.60;;;;;;;-2.99;100.00;98200.78;2079847;28;20227;-82
2020/12/11 03:58:35;;;;;;;163.88;68.32;;;;;;;-3.00;100.00;98203.63;2079367;28;20569;-82
2020/12/11 03:59:36;;;;;;;159.17;66.40;;;;;;;-3.00;100.00;98206.25;2071034;28;20243;-82
2020/12/11 04:00:37;;;;;;;164.95;70.35;;;;;;;-3.02;100.00;98210.91;2070830;28;20277;-83
2020/12/11 04:01:38;;;;;;;171.13;71.67;;;;;;;-3.03;100.00;98210.13;2079408;28;20265;-82
2020/12/11 04:02:39;;;;;;;173.32;73.05;;;;;;;-3.07;100.00;98198.53;2079323;28;20257;-82
2020/12/11 04:03:41;;;;;;;165.77;70.87;;;;;;;-3.03;100.00;98210.13;2071248;28;20250;-82
2020/12/11 04:04:41;;;;;;;177.25;71.75;;;;;;;-3.05;100.00;98195.69;2071299;28;20224;-82
2020/12/11 04:05:43;;;;;;;180.13;73.57;;;;;;;-3.08;100.00;98201.38;2071157;28;20287;-81
2020/12/11 04:06:44;;;;;;;188.27;74.25;;;;;;;-3.09;100.00;98200.59;2070742;28;20238;-81
2020/12/11 04:07:45;;;;;;;181.13;75.40;;;;;;;-3.12;100.00;98201.06;2071042;28;20263;-81
2020/12/11 04:08:46;;;;;;;176.25;70.60;;;;;;;-3.07;100.00;98206.34;2079182;28;20277;-82
2020/12/11 04:09:48;;;;;;;176.95;72.93;;;;;;;-3.52;100.00;98141.75;2079291;28;20235;-82
2020/12/11 04:10:48;;;;;;;186.88;77.97;;;;;;;-3.11;100.00;98202.63;2079393;28;20701;-81
2020/12/11 04:11:50;;;;;;;190.00;78.90;;;;;;;-3.10;100.00;98203.44;2079473;28;20645;-82
2020/12/11 04:12:50;;;;;;;192.95;78.85;;;;;;;-3.15;100.00;98191.06;2079334;28;20231;-82
2020/12/11 04:13:51;;;;;;;201.77;80.37;;;;;;;-3.20;100.00;98189.16;2078610;28;20231;-82
2020/12/11 04:14:52;;;;;;;198.93;81.85;;;;;;;-3.18;100.00;98201.94;2078908;28;20246;-82
2020/12/11 04:15:53;;;;;;;207.93;79.20;;;;;;;-3.13;100.00;98204.66;2079208;28;20231;-82
2020/12/11 04:16:54;;;;;;;196.85;81.53;;;;;;;-3.20;100.00;98210.00;2071189;28;20227;-82
2020/12/11 04:17:55;;;;;;;215.10;82.97;;;;;;;-3.15;100.00;98211.91;2079549;28;20255;-82
2020/12/11 04:18:56;;;;;;;181.00;76.53;;;;;;;-3.18;100.00;98202.75;2079249;28;20246;-82
2020/12/11 04:19:57;;;;;;;183.40;79.30;;;;;;;-3.25;100.00;98188.22;2070599;28;20252;-82
2020/12/11 04:20:58;;;;;;;196.70;78.95;;;;;;;-3.42;100.00;98175.09;2071138;28;20311;-81
2020/12/11 04:22:00;;;;;;;190.67;80.37;;;;;;;-3.16;100.00;98215.56;2079232;28;20223;-81
2020/12/11 04:23:00;;;;;;;199.82;80.47;;;;;;;-3.12;100.00;98203.66;2078198;28;20227;-81
2020/12/11 04:24:02;;;;;;;188.93;78.47;;;;;;;-3.22;100.00;98193.78;2071167;28;20224;-82
2020/12/11 04:25:03;;;;;;;200.73;83.65;;;;;;;-3.21;100.00;98210.25;2078768;28;20285;-81
2020/12/11 04:26:04;;;;;;;208.33;80.33;;;;;;;-3.15;100.00;98204.88;2079082;28;20219;-82
2020/12/11 04:27:05;;;;;;;199.32;80.40;;;;;;;-3.11;100.00;98197.41;2071084;28;20231;-82
2020/12/11 04:28:06;;;;;;;203.07;80.97;;;;;;;-3.08;100.00;98199.56;2079663;28;20302;-82
2020/12/11 04:29:08;;;;;;;189.52;78.72;;;;;;;-3.18;100.00;98191.53;2078779;28;20305;-83
2020/12/11 04:30:08;;;;;;;195.00;81.47;;;;;;;-3.41;100.00;98156.59;2071045;28;20286;-82
2020/12/11 04:31:10;;;;;;;190.00;77.20;;;;;;;-3.23;100.00;98178.34;2071375;28;20235;-82
2020/12/11 04:32:11;;;;;;;202.50;80.72;;;;;;;-3.09;100.00;98197.97;2080339;28;20266;-82
2020/12/11 04:33:12;;;;;;;211.23;81.27;;;;;;;-3.09;100.00;98208.41;2080445;28;20367;-81
2020/12/11 04:34:12;;;;;;;194.18;78.45;;;;;;;-3.49;100.00;98154.34;2072422;28;20686;-82
2020/12/11 04:35:14;;;;;;;200.67;79.20;;;;;;;-3.56;100.00;98143.25;2080899;28;20664;-83
2020/12/11 04:36:17;;;;;;;197.95;79.32;;;;;;;-3.12;100.00;98208.88;2080992;28;20325;-83